Time,TemperatureF,DewpointF,PressureIn,WindDirection,WindDirectionDegrees,WindSpeedMPH,WindSpeedGustMPH,Humidity,HourlyPrecipIn,Conditions,Clouds,dailyrainin,SolarRadiationWatts/m^2,SoftwareType,DateUTC
2013-10-09 00:03:00,79.9,77.0,29.98,SSE,161,0.0,0.0,91,0.00,,,0.00,0.0,meteohub,2013-10-09 04:03:00,
2013-10-09 00:04:00,79.9,77.0,29.98,SSE,161,0.0,0.0,91,0.00,,,0.00,0.0,meteohub,2013-10-09 04:04:00,
2013-10-09 00:05:00,79.9,77.0,29.98,SSE,161,0.0,0.0,91,0.00,,,0.00,0.0,meteohub,2013-10-09 04:05:00,
2013-10-09 00:06:00,79.9,77.0,29.98,SSE,161,0.0,0.0,91,0.00,,,0.00,0.0,meteohub,2013-10-09 04:06:00,
2013-10-09 00:07:00,79.9,77.0,29.98,SSE,160,0.0,0.0,91,0.00,,,0.00,0.0,meteohub,2013-10-09 04:07:00,
2013-10-09 00:13:00,79.9,77.0,29.98,SSE,160,0.0,0.0,91,0.00,,,0.00,0.0,meteohub,2013-10-09 04:13:00,
2013-10-09 00:18:00,79.5,76.6,29.98,SSE,161,0.0,0.0,91,0.00,,,0.00,0.0,meteohub,2013-10-09 04:18:00,
2013-10-09 00:21:00,79.5,76.6,29.98,SSE,160,0.0,0.0,91,0.00,,,0.00,0.0,meteohub,2013-10-09 04:21:00,
2013-10-09 00:27:00,79.3,76.8,29.98,SSE,160,0.0,0.0,92,0.00,,,0.00,0.0,meteohub,2013-10-09 04:27:00,
2013-10-09 00:32:00,79.3,76.8,29.98,SSE,160,0.0,0.0,92,0.00,,,0.00,0.0,meteohub,2013-10-09 04:32:00,
2013-10-09 00:38:00,79.3,76.8,29.98,SSE,160,0.0,0.0,92,0.00,,,0.00,0.0,meteohub,2013-10-09 04:38:00,
2013-10-09 00:43:00,79.2,76.6,29.98,SSE,160,0.0,0.0,92,0.00,,,0.00,0.0,meteohub,2013-10-09 04:43:00,
2013-10-09 00:48:00,79.0,76.5,29.98,SSE,161,0.0,0.0,92,0.00,,,0.00,0.0,meteohub,2013-10-09 04:48:00,
2013-10-09 00:56:00,79.0,76.5,29.98,SSE,158,0.0,4.0,92,0.00,,,0.00,0.0,meteohub,2013-10-09 04:56:00,
2013-10-09 01:03:00,78.8,76.3,29.98,SSE,160,0.0,4.0,92,0.00,,,0.00,0.0,meteohub,2013-10-09 05:03:00,
2013-10-09 01:09:00,78.8,76.3,29.98,SSE,160,0.0,0.0,92,0.00,,,0.00,0.0,meteohub,2013-10-09 05:09:00,
2013-10-09 01:18:00,78.8,76.3,29.98,SSE,160,0.0,2.0,92,0.00,,,0.00,0.0,meteohub,2013-10-09 05:18:00,
2013-10-09 01:23:00,78.8,76.3,29.98,SSE,160,0.0,2.0,92,0.00,,,0.00,0.0,meteohub,2013-10-09 05:23:00,
2013-10-09 01:28:00,79.0,76.5,29.97,SSE,167,0.0,0.0,92,0.00,,,0.00,0.0,meteohub,2013-10-09 05:28:00,
2013-10-09 01:35:00,79.0,76.5,29.97,SSE,167,0.0,6.0,92,0.00,,,0.00,0.0,meteohub,2013-10-09 05:35:00,
2013-10-09 01:41:00,79.2,76.6,29.97,SSE,167,0.0,0.0,92,0.00,,,0.00,0.0,meteohub,2013-10-09 05:41:00,
2013-10-09 01:46:00,79.2,76.6,29.98,SSE,167,0.0,0.0,92,0.00,,,0.00,0.0,meteohub,2013-10-09 05:46:00,
2013-10-09 01:51:00,79.2,76.6,29.98,South,169,0.0,0.0,92,0.00,,,0.00,0.0,meteohub,2013-10-09 05:51:00,
2013-10-09 01:57:00,79.2,76.6,29.98,South,171,0.0,0.0,92,0.00,,,0.00,0.0,meteohub,2013-10-09 05:57:00,
2013-10-09 02:04:00,79.2,76.6,29.98,SSE,168,0.0,0.0,92,0.00,,,0.00,0.0,meteohub,2013-10-09 06:04:00,
2013-10-09 02:09:00,79.2,76.6,29.98,SSE,168,0.0,0.0,92,0.00,,,0.00,0.0,meteohub,2013-10-09 06:09:00,
2013-10-09 02:16:00,79.2,77.0,29.97,SSE,162,0.0,6.0,93,0.00,,,0.00,0.0,meteohub,2013-10-09 06:16:00,
2013-10-09 02:22:00,79.2,77.0,29.97,South,182,0.0,6.0,93,0.00,,,0.00,0.0,meteohub,2013-10-09 06:22:00,
2013-10-09 02:29:00,79.2,77.0,29.97,South,184,0.0,9.0,93,0.00,,,0.00,0.0,meteohub,2013-10-09 06:29:00,
2013-10-09 02:34:00,79.2,77.0,29.97,South,182,0.0,9.0,93,0.00,,,0.00,0.0,meteohub,2013-10-09 06:34:00,
2013-10-09 02:43:00,79.2,77.0,29.96,South,184,0.0,0.0,93,0.00,,,0.00,0.0,meteohub,2013-10-09 06:43:00,
2013-10-09 02:49:00,79.2,77.0,29.96,South,184,0.0,0.0,93,0.00,,,0.00,0.0,meteohub,2013-10-09 06:49:00,
2013-10-09 02:55:00,79.2,77.0,29.96,South,184,0.0,0.0,93,0.00,,,0.00,0.0,meteohub,2013-10-09 06:55:00,
2013-10-09 03:01:00,79.2,77.0,29.97,South,182,0.0,0.0,93,0.00,,,0.00,0.0,meteohub,2013-10-09 07:01:00,
2013-10-09 03:07:00,79.2,77.0,29.97,SSW,205,0.0,5.0,93,0.00,,,0.00,0.0,meteohub,2013-10-09 07:07:00,
2013-10-09 03:15:00,79.0,76.8,29.96,South,179,0.0,5.0,93,0.00,,,0.00,0.0,meteohub,2013-10-09 07:15:00,
2013-10-09 03:21:00,78.8,76.6,29.96,South,174,0.0,3.0,93,0.00,,,0.00,0.0,meteohub,2013-10-09 07:21:00,
2013-10-09 03:26:00,78.8,77.0,29.96,South,181,0.0,3.0,94,0.00,,,0.00,0.0,meteohub,2013-10-09 07:26:00,
2013-10-09 03:32:00,78.6,76.8,29.96,South,181,0.0,3.0,94,0.00,,,0.00,0.0,meteohub,2013-10-09 07:32:00,
2013-10-09 03:38:00,78.6,76.8,29.96,South,175,0.0,3.0,94,0.00,,,0.00,0.0,meteohub,2013-10-09 07:38:00,
2013-10-09 03:50:00,78.6,76.8,29.96,SSE,168,0.0,3.0,94,0.00,,,0.00,0.0,meteohub,2013-10-09 07:50:00,
2013-10-09 03:55:00,78.6,76.8,29.96,South,169,0.0,4.0,94,0.00,,,0.00,0.0,meteohub,2013-10-09 07:55:00,
2013-10-09 04:03:00,78.4,76.6,29.96,SSE,168,0.0,4.0,94,0.00,,,0.00,0.0,meteohub,2013-10-09 08:03:00,
2013-10-09 04:08:00,78.4,76.6,29.96,SSE,168,0.0,0.0,94,0.00,,,0.00,0.0,meteohub,2013-10-09 08:08:00,
2013-10-09 04:16:00,78.3,76.5,29.96,SSE,168,0.0,0.0,94,0.00,,,0.00,0.0,meteohub,2013-10-09 08:16:00,
2013-10-09 04:21:00,78.3,76.5,29.96,SSE,168,0.0,0.0,94,0.00,,,0.00,0.0,meteohub,2013-10-09 08:21:00,
2013-10-09 04:31:00,78.3,76.5,29.96,SSE,168,0.0,0.0,94,0.00,,,0.00,0.0,meteohub,2013-10-09 08:31:00,
2013-10-09 04:36:00,78.3,76.6,29.96,SSE,168,0.0,0.0,95,0.00,,,0.00,0.0,meteohub,2013-10-09 08:36:00,
2013-10-09 04:42:00,78.1,76.5,29.96,SSE,167,0.0,0.0,95,0.00,,,0.00,0.0,meteohub,2013-10-09 08:42:00,
2013-10-09 04:47:00,78.1,76.5,29.96,South,169,0.0,0.0,95,0.00,,,0.00,0.0,meteohub,2013-10-09 08:47:00,
2013-10-09 04:52:00,78.1,76.5,29.96,SSE,168,0.0,0.0,95,0.00,,,0.00,0.0,meteohub,2013-10-09 08:52:00,
2013-10-09 04:57:00,78.1,76.5,29.96,South,169,0.0,0.0,95,0.00,,,0.00,0.0,meteohub,2013-10-09 08:57:00,
2013-10-09 05:02:00,78.1,76.5,29.96,SSE,168,0.0,0.0,95,0.00,,,0.00,0.0,meteohub,2013-10-09 09:02:00,
2013-10-09 05:08:00,78.1,76.5,29.96,SSE,167,0.0,0.0,95,0.00,,,0.00,0.0,meteohub,2013-10-09 09:08:00,
2013-10-09 05:13:00,78.1,76.5,29.97,South,169,0.0,0.0,95,0.00,,,0.00,0.0,meteohub,2013-10-09 09:13:00,
2013-10-09 05:19:00,78.1,76.5,29.97,SSE,168,0.0,0.0,95,0.00,,,0.00,0.0,meteohub,2013-10-09 09:19:00,
2013-10-09 05:24:00,78.1,76.5,29.97,South,169,0.0,0.0,95,0.00,,,0.00,0.0,meteohub,2013-10-09 09:24:00,
2013-10-09 05:34:00,78.1,76.5,29.98,SSE,168,0.0,0.0,95,0.00,,,0.00,0.0,meteohub,2013-10-09 09:34:00,
2013-10-09 05:39:00,78.1,76.8,29.98,SSE,168,0.0,0.0,96,0.00,,,0.00,0.0,meteohub,2013-10-09 09:39:00,
2013-10-09 05:45:00,78.1,76.8,29.98,SSE,168,0.0,0.0,96,0.00,,,0.00,0.0,meteohub,2013-10-09 09:45:00,
2013-10-09 05:50:00,78.1,76.8,29.98,SSE,167,0.0,0.0,96,0.00,,,0.00,0.0,meteohub,2013-10-09 09:50:00,
2013-10-09 05:56:00,78.1,76.8,29.98,SSE,167,0.0,0.0,96,0.00,,,0.00,0.0,meteohub,2013-10-09 09:56:00,
2013-10-09 06:01:00,78.1,76.8,29.98,SSE,168,0.0,0.0,96,0.00,,,0.00,0.0,meteohub,2013-10-09 10:01:00,
2013-10-09 06:06:00,78.1,76.8,29.98,SSE,168,0.0,0.0,96,0.00,,,0.00,0.0,meteohub,2013-10-09 10:06:00,
2013-10-09 06:12:00,78.1,76.8,29.99,SSE,168,0.0,0.0,96,0.00,,,0.00,0.0,meteohub,2013-10-09 10:12:00,
2013-10-09 06:18:00,78.1,76.8,29.99,SSE,167,0.0,0.0,96,0.00,,,0.00,0.0,meteohub,2013-10-09 10:18:00,
2013-10-09 06:23:00,78.1,76.8,29.99,SSE,167,0.0,0.0,96,0.00,,,0.00,0.0,meteohub,2013-10-09 10:23:00,
2013-10-09 06:28:00,77.9,76.6,29.99,SSE,168,0.0,0.0,96,0.00,,,0.00,7.0,meteohub,2013-10-09 10:28:00,
2013-10-09 06:33:00,77.9,76.6,29.99,SSE,167,0.0,0.0,96,0.00,,,0.00,23.0,meteohub,2013-10-09 10:33:00,
2013-10-09 06:38:00,77.9,76.6,29.99,SSE,168,0.0,0.0,96,0.00,,,0.00,32.0,meteohub,2013-10-09 10:38:00,
2013-10-09 06:44:00,78.1,76.8,29.99,SSE,168,0.0,0.0,96,0.00,,,0.00,28.0,meteohub,2013-10-09 10:44:00,
2013-10-09 06:49:00,78.1,76.8,29.99,SSE,167,0.0,0.0,96,0.00,,,0.00,32.0,meteohub,2013-10-09 10:49:00,
2013-10-09 06:55:00,78.1,76.8,29.99,SSE,167,0.0,0.0,96,0.00,,,0.00,86.0,meteohub,2013-10-09 10:55:00,
2013-10-09 07:01:00,78.1,76.8,29.99,SSE,168,0.0,1.0,96,0.00,,,0.00,83.0,meteohub,2013-10-09 11:01:00,
2013-10-09 07:06:00,78.3,77.0,29.99,South,172,0.0,1.0,96,0.00,,,0.00,151.0,meteohub,2013-10-09 11:06:00,
2013-10-09 07:11:00,78.4,77.2,29.99,South,184,0.0,1.0,96,0.00,,,0.00,121.0,meteohub,2013-10-09 11:11:00,
2013-10-09 07:19:00,78.6,77.4,29.99,South,182,0.0,1.0,96,0.00,,,0.00,132.0,meteohub,2013-10-09 11:19:00,
2013-10-09 07:26:00,79.0,77.7,29.99,South,171,0.0,5.0,96,0.00,,,0.00,213.0,meteohub,2013-10-09 11:26:00,
2013-10-09 07:31:00,79.3,77.7,29.99,SSE,155,0.0,8.0,95,0.00,,,0.00,194.0,meteohub,2013-10-09 11:31:00,
2013-10-09 07:37:00,79.9,78.3,29.99,SSW,198,0.0,8.0,95,0.00,,,0.00,220.0,meteohub,2013-10-09 11:37:00,
2013-10-09 07:43:00,80.1,78.3,29.99,SSW,198,0.0,8.0,94,0.00,,,0.00,278.0,meteohub,2013-10-09 11:43:00,
2013-10-09 07:50:00,80.4,78.3,29.99,South,171,3.0,6.0,93,0.00,,,0.00,164.0,meteohub,2013-10-09 11:50:00,
2013-10-09 07:55:00,80.8,78.3,29.99,South,188,0.0,7.0,92,0.00,,,0.00,169.0,meteohub,2013-10-09 11:55:00,
2013-10-09 08:01:00,81.1,78.6,29.99,SSE,155,0.0,8.0,92,0.00,,,0.00,144.0,meteohub,2013-10-09 12:01:00,
2013-10-09 08:05:00,81.1,78.3,29.99,SSE,155,0.0,8.0,91,0.00,,,0.00,202.0,meteohub,2013-10-09 12:05:00,
2013-10-09 08:10:00,81.3,78.1,29.99,SSE,155,0.0,8.0,90,0.00,,,0.00,227.0,meteohub,2013-10-09 12:10:00,
2013-10-09 08:17:00,81.9,78.3,29.99,SSE,151,5.0,0.0,89,0.00,,,0.00,278.0,meteohub,2013-10-09 12:17:00,
2013-10-09 08:24:00,82.0,78.4,29.99,SW,226,5.0,8.0,89,0.00,,,0.00,341.0,meteohub,2013-10-09 12:24:00,
2013-10-09 08:29:00,82.2,78.3,29.99,SW,224,0.0,8.0,88,0.00,,,0.00,352.0,meteohub,2013-10-09 12:29:00,
2013-10-09 08:35:00,82.4,78.4,29.99,SSW,203,0.0,8.0,88,0.00,,,0.00,324.0,meteohub,2013-10-09 12:35:00,
2013-10-09 08:40:00,82.8,78.4,29.99,SW,236,0.0,7.0,87,0.00,,,0.00,401.0,meteohub,2013-10-09 12:40:00,
2013-10-09 08:46:00,82.9,78.3,30.00,SW,220,0.0,7.0,86,0.00,,,0.00,447.0,meteohub,2013-10-09 12:46:00,
2013-10-09 08:52:00,83.5,78.4,30.00,South,171,6.0,7.0,85,0.00,,,0.00,479.0,meteohub,2013-10-09 12:52:00,
2013-10-09 08:56:00,83.7,78.6,30.00,SSE,161,6.0,7.0,85,0.00,,,0.00,554.0,meteohub,2013-10-09 12:56:00,
2013-10-09 09:01:00,84.0,78.6,30.00,SSE,162,1.0,7.0,84,0.00,,,0.00,602.0,meteohub,2013-10-09 13:01:00,
2013-10-09 09:06:00,84.0,78.6,30.00,SSW,209,1.0,8.0,84,0.00,,,0.00,625.0,meteohub,2013-10-09 13:06:00,
2013-10-09 09:11:00,84.6,79.2,30.00,SSE,154,7.0,8.0,84,0.00,,,0.00,681.0,meteohub,2013-10-09 13:11:00,
2013-10-09 09:16:00,84.7,79.0,30.00,SSE,168,6.0,10.0,83,0.00,,,0.00,732.0,meteohub,2013-10-09 13:16:00,
2013-10-09 09:22:00,85.1,79.3,30.00,SSE,158,3.0,12.0,83,0.00,,,0.00,746.0,meteohub,2013-10-09 13:22:00,
2013-10-09 09:27:00,85.5,79.7,30.00,SE,131,6.0,12.0,83,0.00,,,0.00,764.0,meteohub,2013-10-09 13:27:00,
2013-10-09 09:32:00,85.8,79.7,30.01,SSW,200,3.0,12.0,82,0.00,,,0.00,765.0,meteohub,2013-10-09 13:32:00,
2013-10-09 09:37:00,86.4,79.9,30.01,SE,141,0.0,11.0,81,0.00,,,0.00,757.0,meteohub,2013-10-09 13:37:00,
2013-10-09 09:42:00,86.7,80.2,30.01,SSE,152,2.0,11.0,81,0.00,,,0.00,772.0,meteohub,2013-10-09 13:42:00,
2013-10-09 09:47:00,87.3,80.2,30.01,South,188,2.0,11.0,80,0.00,,,0.00,651.0,meteohub,2013-10-09 13:47:00,
2013-10-09 09:52:00,87.3,79.9,30.01,South,169,3.0,11.0,79,0.00,,,0.00,700.0,meteohub,2013-10-09 13:52:00,
2013-10-09 09:57:00,87.4,79.7,30.01,SE,144,10.0,11.0,78,0.00,,,0.00,693.0,meteohub,2013-10-09 13:57:00,
2013-10-09 10:02:00,87.6,79.9,30.02,South,175,0.0,11.0,78,0.00,,,0.00,809.0,meteohub,2013-10-09 14:02:00,
2013-10-09 10:07:00,87.8,79.7,30.02,SSW,198,0.0,11.0,77,0.00,,,0.00,776.0,meteohub,2013-10-09 14:07:00,
2013-10-09 10:12:00,88.0,79.5,30.02,SSW,195,0.0,11.0,76,0.00,,,0.00,848.0,meteohub,2013-10-09 14:12:00,
2013-10-09 10:17:00,88.0,79.5,30.02,SSW,199,3.0,9.0,76,0.00,,,0.00,852.0,meteohub,2013-10-09 14:17:00,
2013-10-09 10:22:00,88.2,80.1,30.02,South,181,0.0,9.0,77,0.00,,,0.00,882.0,meteohub,2013-10-09 14:22:00,
2013-10-09 10:27:00,88.3,80.2,30.02,SE,138,5.0,9.0,77,0.00,,,0.00,892.0,meteohub,2013-10-09 14:27:00,
2013-10-09 10:32:00,88.9,79.9,30.02,ESE,123,7.0,11.0,75,0.00,,,0.00,896.0,meteohub,2013-10-09 14:32:00,
2013-10-09 10:37:00,89.1,80.4,30.02,ESE,120,5.0,11.0,76,0.00,,,0.00,815.0,meteohub,2013-10-09 14:37:00,
2013-10-09 10:42:00,89.2,80.2,30.02,South,175,0.0,11.0,75,0.00,,,0.00,266.0,meteohub,2013-10-09 14:42:00,
2013-10-09 10:47:00,89.2,79.9,30.01,South,169,6.0,10.0,74,0.00,,,0.00,827.0,meteohub,2013-10-09 14:47:00,
2013-10-09 10:52:00,89.4,79.2,30.01,South,184,0.0,14.0,72,0.00,,,0.00,815.0,meteohub,2013-10-09 14:52:00,
2013-10-09 10:57:00,89.8,79.2,30.01,SSW,196,10.0,14.0,71,0.00,,,0.00,188.0,meteohub,2013-10-09 14:57:00,
2013-10-09 11:02:00,90.1,79.5,30.01,SSE,148,2.0,14.0,71,0.00,,,0.00,195.0,meteohub,2013-10-09 15:02:00,
2013-10-09 11:07:00,90.0,79.3,30.01,SE,144,3.0,12.0,71,0.00,,,0.00,285.0,meteohub,2013-10-09 15:07:00,
2013-10-09 11:12:00,90.1,79.5,30.01,SW,216,3.0,12.0,71,0.00,,,0.00,280.0,meteohub,2013-10-09 15:12:00,
2013-10-09 11:17:00,90.1,78.6,29.99,SSW,199,6.0,13.0,69,0.00,,,0.00,852.0,meteohub,2013-10-09 15:17:00,
2013-10-09 11:22:00,90.1,78.1,29.99,ESE,119,4.0,13.0,68,0.00,,,0.00,841.0,meteohub,2013-10-09 15:22:00,
2013-10-09 11:27:00,90.1,78.6,29.99,SE,138,7.0,14.0,69,0.00,,,0.00,772.0,meteohub,2013-10-09 15:27:00,
2013-10-09 11:32:00,90.1,78.6,29.99,SE,144,6.0,14.0,69,0.00,,,0.00,746.0,meteohub,2013-10-09 15:32:00,
2013-10-09 11:37:00,90.3,78.8,29.99,SSE,161,7.0,16.0,69,0.00,,,0.00,633.0,meteohub,2013-10-09 15:37:00,
2013-10-09 11:42:00,90.1,78.6,29.99,SE,137,0.0,16.0,69,0.00,,,0.00,691.0,meteohub,2013-10-09 15:42:00,
2013-10-09 11:47:00,90.3,78.8,29.99,South,191,2.0,16.0,69,0.00,,,0.00,727.0,meteohub,2013-10-09 15:47:00,
2013-10-09 11:52:00,90.5,79.0,29.99,South,185,7.0,11.0,69,0.00,,,0.00,635.0,meteohub,2013-10-09 15:52:00,
2013-10-09 11:57:00,90.5,78.4,29.99,SSE,158,0.0,8.0,68,0.00,,,0.00,795.0,meteohub,2013-10-09 15:57:00,
2013-10-09 12:02:00,91.0,78.1,29.98,SSE,162,6.0,8.0,66,0.00,,,0.00,772.0,meteohub,2013-10-09 16:02:00,
2013-10-09 12:07:00,91.0,78.1,29.98,East,99,5.0,8.0,66,0.00,,,0.00,788.0,meteohub,2013-10-09 16:07:00,
2013-10-09 12:12:00,91.4,78.8,29.98,WSW,248,2.0,11.0,67,0.00,,,0.00,769.0,meteohub,2013-10-09 16:12:00,
2013-10-09 12:17:00,91.4,77.9,29.97,SE,130,5.0,11.0,65,0.00,,,0.00,933.0,meteohub,2013-10-09 16:17:00,
2013-10-09 12:22:00,91.4,77.9,29.97,SW,216,2.0,8.0,65,0.00,,,0.00,962.0,meteohub,2013-10-09 16:22:00,
2013-10-09 12:27:00,91.6,78.1,29.97,East,93,2.0,11.0,65,0.00,,,0.00,1001.0,meteohub,2013-10-09 16:27:00,
2013-10-09 12:32:00,91.8,77.9,29.96,SE,145,3.0,11.0,64,0.00,,,0.00,1006.0,meteohub,2013-10-09 16:32:00,
2013-10-09 12:37:00,92.1,78.6,29.96,SSE,157,10.0,11.0,65,0.00,,,0.00,987.0,meteohub,2013-10-09 16:37:00,
2013-10-09 12:42:00,91.8,77.9,29.96,SSE,158,3.0,12.0,64,0.00,,,0.00,961.0,meteohub,2013-10-09 16:42:00,
2013-10-09 12:47:00,92.1,77.7,29.96,South,178,10.0,12.0,63,0.00,,,0.00,874.0,meteohub,2013-10-09 16:47:00,
2013-10-09 12:52:00,92.1,77.7,29.96,East,100,0.0,13.0,63,0.00,,,0.00,887.0,meteohub,2013-10-09 16:52:00,
2013-10-09 12:57:00,92.3,77.9,29.96,SSE,147,10.0,13.0,63,0.00,,,0.00,876.0,meteohub,2013-10-09 16:57:00,
2013-10-09 13:02:00,92.3,78.3,29.95,SSE,147,10.0,13.0,64,0.00,,,0.00,832.0,meteohub,2013-10-09 17:02:00,
2013-10-09 13:07:00,91.8,78.3,29.95,SE,128,3.0,13.0,65,0.00,,,0.00,813.0,meteohub,2013-10-09 17:07:00,
2013-10-09 13:12:00,91.8,77.4,29.95,SE,141,5.0,12.0,63,0.00,,,0.00,834.0,meteohub,2013-10-09 17:12:00,
2013-10-09 13:17:00,91.6,77.7,29.94,SSE,155,4.0,12.0,64,0.00,,,0.00,873.0,meteohub,2013-10-09 17:17:00,
2013-10-09 13:22:00,91.6,76.6,29.94,SE,145,6.0,13.0,62,0.00,,,0.00,864.0,meteohub,2013-10-09 17:22:00,
2013-10-09 13:27:00,91.8,77.4,29.94,SSW,213,3.0,13.0,63,0.00,,,0.00,864.0,meteohub,2013-10-09 17:27:00,
2013-10-09 13:32:00,91.8,77.4,29.93,SSE,152,6.0,13.0,63,0.00,,,0.00,859.0,meteohub,2013-10-09 17:32:00,
2013-10-09 13:37:00,91.6,77.2,29.93,ESE,121,10.0,14.0,63,0.00,,,0.00,855.0,meteohub,2013-10-09 17:37:00,
2013-10-09 13:42:00,91.4,77.0,29.93,SSE,150,6.0,18.0,63,0.00,,,0.00,860.0,meteohub,2013-10-09 17:42:00,
2013-10-09 13:47:00,91.6,77.7,29.92,SE,138,4.0,18.0,64,0.00,,,0.00,813.0,meteohub,2013-10-09 17:47:00,
2013-10-09 13:52:00,91.8,77.9,29.92,South,191,0.0,16.0,64,0.00,,,0.00,435.0,meteohub,2013-10-09 17:52:00,
2013-10-09 13:57:00,91.6,77.7,29.92,South,178,1.0,13.0,64,0.00,,,0.00,521.0,meteohub,2013-10-09 17:57:00,
2013-10-09 14:02:00,91.2,77.7,29.93,SSW,198,3.0,13.0,65,0.00,,,0.00,507.0,meteohub,2013-10-09 18:02:00,
2013-10-09 14:07:00,91.0,78.1,29.93,SSW,208,8.0,13.0,66,0.00,,,0.00,533.0,meteohub,2013-10-09 18:07:00,
2013-10-09 14:12:00,90.7,76.8,29.93,SW,224,4.0,14.0,64,0.00,,,0.00,486.0,meteohub,2013-10-09 18:12:00,
2013-10-09 14:17:00,90.7,77.7,29.92,South,185,2.0,14.0,66,0.00,,,0.00,466.0,meteohub,2013-10-09 18:17:00,
2013-10-09 14:22:00,90.3,77.0,29.92,South,169,6.0,14.0,65,0.00,,,0.00,431.0,meteohub,2013-10-09 18:22:00,
2013-10-09 14:27:00,90.1,76.8,29.92,SSW,199,5.0,13.0,65,0.00,,,0.00,417.0,meteohub,2013-10-09 18:27:00,
2013-10-09 14:32:00,90.1,76.3,29.92,South,182,0.0,14.0,64,0.00,,,0.00,364.0,meteohub,2013-10-09 18:32:00,
2013-10-09 14:37:00,90.0,76.6,29.92,South,184,2.0,14.0,65,0.00,,,0.00,486.0,meteohub,2013-10-09 18:37:00,
2013-10-09 14:42:00,90.0,76.6,29.92,SE,145,8.0,14.0,65,0.00,,,0.00,357.0,meteohub,2013-10-09 18:42:00,
2013-10-09 14:47:00,90.0,76.6,29.92,SSW,192,6.0,13.0,65,0.00,,,0.00,345.0,meteohub,2013-10-09 18:47:00,
2013-10-09 14:52:00,90.0,76.6,29.92,SE,138,7.0,13.0,65,0.00,,,0.00,487.0,meteohub,2013-10-09 18:52:00,
2013-10-09 14:57:00,90.1,77.2,29.92,South,176,4.0,13.0,66,0.00,,,0.00,413.0,meteohub,2013-10-09 18:57:00,
2013-10-09 15:02:00,90.0,77.0,29.92,South,176,8.0,10.0,66,0.00,,,0.00,195.0,meteohub,2013-10-09 19:02:00,
2013-10-09 15:07:00,90.0,77.0,29.92,South,179,3.0,10.0,66,0.00,,,0.00,158.0,meteohub,2013-10-09 19:07:00,
2013-10-09 15:12:00,89.8,77.4,29.92,South,174,2.0,10.0,67,0.00,,,0.00,143.0,meteohub,2013-10-09 19:12:00,
2013-10-09 15:17:00,89.2,76.8,29.91,SSE,155,1.0,10.0,67,0.00,,,0.00,132.0,meteohub,2013-10-09 19:17:00,
2013-10-09 15:22:00,89.1,77.2,29.91,SE,134,2.0,11.0,68,0.00,,,0.00,127.0,meteohub,2013-10-09 19:22:00,
2013-10-09 15:27:00,89.1,77.2,29.91,SE,134,3.0,11.0,68,0.00,,,0.00,123.0,meteohub,2013-10-09 19:27:00,
2013-10-09 15:32:00,89.1,77.5,29.91,South,171,5.0,11.0,69,0.00,,,0.00,125.0,meteohub,2013-10-09 19:32:00,
2013-10-09 15:37:00,88.9,77.4,29.91,SSE,161,2.0,6.0,69,0.00,,,0.00,128.0,meteohub,2013-10-09 19:37:00,
2013-10-09 15:42:00,88.9,77.9,29.91,SSE,148,1.0,7.0,70,0.00,,,0.00,135.0,meteohub,2013-10-09 19:42:00,
2013-10-09 15:47:00,88.9,77.9,29.91,SSE,161,2.0,7.0,70,0.00,,,0.00,141.0,meteohub,2013-10-09 19:47:00,
2013-10-09 15:52:00,88.9,77.9,29.91,South,185,5.0,8.0,70,0.00,,,0.00,148.0,meteohub,2013-10-09 19:52:00,
2013-10-09 15:57:00,88.5,77.5,29.91,SE,145,6.0,8.0,70,0.00,,,0.00,151.0,meteohub,2013-10-09 19:57:00,
2013-10-09 16:02:00,88.5,77.5,29.91,South,176,2.0,8.0,70,0.00,,,0.00,153.0,meteohub,2013-10-09 20:02:00,
2013-10-09 16:07:00,88.3,77.7,29.91,SSE,151,3.0,8.0,71,0.00,,,0.00,151.0,meteohub,2013-10-09 20:07:00,
2013-10-09 16:12:00,88.3,77.7,29.91,SSE,148,0.0,8.0,71,0.00,,,0.00,146.0,meteohub,2013-10-09 20:12:00,
2013-10-09 16:17:00,88.2,77.5,29.91,SSE,148,1.0,7.0,71,0.00,,,0.00,135.0,meteohub,2013-10-09 20:17:00,
2013-10-09 16:22:00,88.3,77.7,29.91,SSE,150,0.0,7.0,71,0.00,,,0.00,132.0,meteohub,2013-10-09 20:22:00,
2013-10-09 16:27:00,88.3,77.7,29.91,SSE,161,0.0,7.0,71,0.00,,,0.00,127.0,meteohub,2013-10-09 20:27:00,
2013-10-09 16:32:00,88.2,77.5,29.91,SSE,152,1.0,6.0,71,0.00,,,0.00,120.0,meteohub,2013-10-09 20:32:00,
2013-10-09 16:37:00,88.0,77.4,29.91,SSE,162,0.0,7.0,71,0.00,,,0.00,114.0,meteohub,2013-10-09 20:37:00,
2013-10-09 16:42:00,88.0,77.4,29.91,South,189,1.0,7.0,71,0.00,,,0.00,109.0,meteohub,2013-10-09 20:42:00,
2013-10-09 16:47:00,87.8,77.2,29.92,SW,215,0.0,7.0,71,0.00,,,0.00,102.0,meteohub,2013-10-09 20:47:00,
2013-10-09 16:52:00,87.8,77.2,29.92,SSW,200,0.0,6.0,71,0.00,,,0.00,88.0,meteohub,2013-10-09 20:52:00,
2013-10-09 16:57:00,87.8,77.7,29.92,SSW,202,0.0,5.0,72,0.00,,,0.00,63.0,meteohub,2013-10-09 20:57:00,
2013-10-09 17:02:00,88.0,78.3,29.93,WNW,294,7.0,7.0,73,0.00,,,0.00,60.0,meteohub,2013-10-09 21:02:00,
2013-10-09 17:07:00,87.8,78.8,29.93,NW,319,2.0,8.0,75,0.00,,,0.00,62.0,meteohub,2013-10-09 21:07:00,
2013-10-09 17:12:00,87.6,79.2,29.93,NW,318,0.0,8.0,76,0.00,,,0.00,63.0,meteohub,2013-10-09 21:12:00,
2013-10-09 17:17:00,87.4,79.3,29.93,NW,318,0.0,8.0,77,0.00,,,0.00,56.0,meteohub,2013-10-09 21:17:00,
2013-10-09 17:22:00,87.3,79.2,29.93,NW,319,0.0,7.0,77,0.00,,,0.00,48.0,meteohub,2013-10-09 21:22:00,
2013-10-09 17:27:00,87.1,79.0,29.93,NW,316,3.0,5.0,77,0.00,,,0.00,39.0,meteohub,2013-10-09 21:27:00,
2013-10-09 17:32:00,86.7,78.6,29.93,NW,316,2.0,6.0,77,0.00,,,0.00,35.0,meteohub,2013-10-09 21:32:00,
2013-10-09 17:37:00,86.5,78.8,29.93,NW,316,0.0,6.0,78,0.00,,,0.00,28.0,meteohub,2013-10-09 21:37:00,
2013-10-09 17:42:00,86.5,78.8,29.93,NW,315,0.0,3.0,78,0.00,,,0.00,19.0,meteohub,2013-10-09 21:42:00,
2013-10-09 17:47:00,86.5,78.8,29.93,North,356,0.0,6.0,78,0.00,,,0.00,14.0,meteohub,2013-10-09 21:47:00,
2013-10-09 17:52:00,86.4,79.0,29.93,North,354,0.0,6.0,79,0.00,,,0.00,11.0,meteohub,2013-10-09 21:52:00,
2013-10-09 17:57:00,86.2,79.0,29.93,North,353,0.0,6.0,79,0.00,,,0.00,7.0,meteohub,2013-10-09 21:57:00,
2013-10-09 18:02:00,86.2,79.0,29.93,North,353,0.0,3.0,79,0.00,,,0.00,0.0,meteohub,2013-10-09 22:02:00,
2013-10-09 18:07:00,86.2,79.0,29.93,North,353,0.0,0.0,79,0.00,,,0.00,0.0,meteohub,2013-10-09 22:07:00,
2013-10-09 18:12:00,86.2,79.3,29.93,North,353,0.0,0.0,80,0.00,,,0.00,0.0,meteohub,2013-10-09 22:12:00,
2013-10-09 18:17:00,85.8,79.0,29.94,North,353,0.0,0.0,80,0.00,,,0.00,0.0,meteohub,2013-10-09 22:17:00,
2013-10-09 18:22:00,85.8,79.0,29.94,North,353,0.0,0.0,80,0.00,,,0.00,0.0,meteohub,2013-10-09 22:22:00,
2013-10-09 18:27:00,85.6,78.8,29.94,North,352,0.0,0.0,80,0.00,,,0.00,0.0,meteohub,2013-10-09 22:27:00,
2013-10-09 18:32:00,85.6,78.8,29.94,NE,47,7.0,0.0,80,0.00,,,0.00,0.0,meteohub,2013-10-09 22:32:00,
2013-10-09 18:37:00,85.1,79.0,29.94,SE,124,102.0,102.0,82,0.00,,,0.00,0.0,meteohub,2013-10-09 22:37:00,
2013-10-09 18:42:00,83.7,78.3,29.94,SE,144,101.0,105.0,84,0.15,,,0.04,0.0,meteohub,2013-10-09 22:42:00,
2013-10-09 18:47:00,82.0,78.1,29.96,SSW,206,103.0,105.0,88,0.29,,,0.29,0.0,meteohub,2013-10-09 22:47:00,
2013-10-09 18:52:00,80.4,77.2,29.96,SSW,192,101.0,113.0,90,0.59,,,0.59,0.0,meteohub,2013-10-09 22:52:00,
2013-10-09 18:57:00,79.3,76.8,29.96,SSW,199,0.0,113.0,92,0.64,,,0.63,0.0,meteohub,2013-10-09 22:57:00,
2013-10-09 19:02:00,78.6,76.8,29.96,SSW,195,1.0,113.0,94,0.66,,,0.66,0.0,meteohub,2013-10-09 23:02:00,
2013-10-09 19:07:00,78.1,76.8,29.96,SW,233,10.0,112.0,96,0.69,,,0.69,0.0,meteohub,2013-10-09 23:07:00,
2013-10-09 19:12:00,77.5,76.3,29.96,SW,233,6.0,12.0,96,0.70,,,0.70,0.0,meteohub,2013-10-09 23:12:00,
2013-10-09 19:17:00,77.2,76.3,29.97,SSW,206,3.0,13.0,97,0.70,,,0.70,0.0,meteohub,2013-10-09 23:17:00,
2013-10-09 19:22:00,77.0,76.5,29.97,SW,227,5.0,13.0,98,0.70,,,0.70,0.0,meteohub,2013-10-09 23:22:00,
2013-10-09 19:27:00,76.8,76.3,29.97,SW,222,0.0,11.0,98,0.70,,,0.70,0.0,meteohub,2013-10-09 23:27:00,
2013-10-09 19:32:00,76.6,76.3,29.96,SW,230,5.0,11.0,99,0.70,,,0.70,0.0,meteohub,2013-10-09 23:32:00,
2013-10-09 19:37:00,76.6,76.3,29.96,SW,230,0.0,10.0,99,0.70,,,0.70,0.0,meteohub,2013-10-09 23:37:00,
2013-10-09 19:42:00,76.8,76.5,29.96,SSW,205,1.0,8.0,99,0.54,,,0.71,0.0,meteohub,2013-10-09 23:42:00,
2013-10-09 19:47:00,76.8,76.8,29.96,SSW,208,0.0,8.0,100,0.28,,,0.71,0.0,meteohub,2013-10-09 23:47:00,
2013-10-09 19:52:00,76.8,76.8,29.96,SSW,200,4.0,6.0,100,0.10,,,0.71,0.0,meteohub,2013-10-09 23:52:00,
2013-10-09 19:57:00,76.5,76.5,29.96,SSE,160,5.0,6.0,100,0.07,,,0.71,0.0,meteohub,2013-10-09 23:57:00,
2013-10-09 20:02:00,76.1,76.1,29.96,SSE,162,6.0,6.0,100,0.04,,,0.71,0.0,meteohub,2013-10-10 00:02:00,
2013-10-09 20:07:00,75.9,75.9,29.96,South,169,0.0,10.0,100,0.02,,,0.71,0.0,meteohub,2013-10-10 00:07:00,
2013-10-09 20:12:00,75.7,75.7,29.97,SSW,203,0.0,10.0,100,0.01,,,0.71,0.0,meteohub,2013-10-10 00:12:00,
2013-10-09 20:17:00,75.6,75.6,29.97,South,188,0.0,10.0,100,0.01,,,0.71,0.0,meteohub,2013-10-10 00:17:00,
2013-10-09 20:22:00,75.7,75.7,29.97,South,188,0.0,7.0,100,0.01,,,0.71,0.0,meteohub,2013-10-10 00:22:00,
2013-10-09 20:27:00,75.7,75.7,29.99,South,188,0.0,5.0,100,0.01,,,0.71,0.0,meteohub,2013-10-10 00:27:00,
2013-10-09 20:32:00,75.9,75.9,29.99,South,188,0.0,3.0,100,0.01,,,0.71,0.0,meteohub,2013-10-10 00:32:00,
2013-10-09 20:37:00,75.9,75.9,29.99,South,188,0.0,0.0,100,0.01,,,0.71,0.0,meteohub,2013-10-10 00:37:00,
2013-10-09 20:42:00,76.1,76.1,29.99,South,189,0.0,0.0,100,0.00,,,0.71,0.0,meteohub,2013-10-10 00:42:00,
2013-10-09 20:47:00,76.1,76.1,29.99,South,188,0.0,0.0,100,0.00,,,0.71,0.0,meteohub,2013-10-10 00:47:00,
2013-10-09 20:52:00,76.1,75.7,29.99,South,188,0.0,3.0,99,0.00,,,0.71,0.0,meteohub,2013-10-10 00:52:00,
2013-10-09 20:57:00,75.9,75.6,29.99,South,181,0.0,8.0,99,0.00,,,0.71,0.0,meteohub,2013-10-10 00:57:00,
2013-10-09 21:02:00,75.9,75.6,29.99,South,191,0.0,8.0,99,0.00,,,0.71,0.0,meteohub,2013-10-10 01:02:00,
2013-10-09 21:07:00,75.9,75.6,29.99,South,171,4.0,11.0,99,0.00,,,0.71,0.0,meteohub,2013-10-10 01:07:00,
2013-10-09 21:12:00,76.1,75.7,29.99,SE,145,6.0,11.0,99,0.00,,,0.71,0.0,meteohub,2013-10-10 01:12:00,
2013-10-09 21:17:00,76.1,75.6,29.99,SSE,150,2.0,11.0,98,0.00,,,0.71,0.0,meteohub,2013-10-10 01:17:00,
2013-10-09 21:22:00,76.3,75.7,29.99,SSE,150,0.0,8.0,98,0.00,,,0.71,0.0,meteohub,2013-10-10 01:22:00,
2013-10-09 21:28:00,76.3,75.7,29.99,SSW,202,0.0,8.0,98,0.00,,,0.71,0.0,meteohub,2013-10-10 01:28:00,
2013-10-09 21:33:00,76.3,75.7,29.99,SSE,155,0.0,9.0,98,0.00,,,0.71,0.0,meteohub,2013-10-10 01:33:00,
2013-10-09 21:38:00,76.3,75.4,29.99,SSW,193,0.0,9.0,97,0.00,,,0.71,0.0,meteohub,2013-10-10 01:38:00,
2013-10-09 21:43:00,76.5,75.6,29.99,SSE,165,0.0,9.0,97,0.00,,,0.71,0.0,meteohub,2013-10-10 01:43:00,
2013-10-09 21:48:00,76.5,75.6,29.99,South,186,0.0,11.0,97,0.00,,,0.71,0.0,meteohub,2013-10-10 01:48:00,
2013-10-09 21:53:00,76.6,75.7,29.99,South,184,0.0,11.0,97,0.00,,,0.71,0.0,meteohub,2013-10-10 01:53:00,
2013-10-09 21:58:00,76.6,75.4,29.99,SSE,164,0.0,11.0,96,0.00,,,0.71,0.0,meteohub,2013-10-10 01:58:00,
2013-10-09 22:03:00,76.6,75.4,29.99,South,189,0.0,5.0,96,0.00,,,0.71,0.0,meteohub,2013-10-10 02:03:00,
2013-10-09 22:08:00,76.8,75.6,29.99,SSW,192,4.0,6.0,96,0.00,,,0.71,0.0,meteohub,2013-10-10 02:08:00,
2013-10-09 22:13:00,76.8,75.6,29.98,South,171,0.0,8.0,96,0.00,,,0.71,0.0,meteohub,2013-10-10 02:13:00,
2013-10-09 22:18:00,77.0,75.7,29.98,SSE,161,0.0,8.0,96,0.00,,,0.71,0.0,meteohub,2013-10-10 02:18:00,
2013-10-09 22:23:00,76.8,75.6,29.98,SSE,161,0.0,8.0,96,0.00,,,0.71,0.0,meteohub,2013-10-10 02:23:00,
2013-10-09 22:28:00,77.0,75.7,29.98,SSE,158,0.0,6.0,96,0.00,,,0.71,0.0,meteohub,2013-10-10 02:28:00,
2013-10-09 22:33:00,77.0,75.7,29.98,SSE,161,0.0,6.0,96,0.00,,,0.71,0.0,meteohub,2013-10-10 02:33:00,
2013-10-09 22:38:00,77.0,75.4,29.98,SSE,162,0.0,6.0,95,0.00,,,0.71,0.0,meteohub,2013-10-10 02:38:00,
2013-10-09 22:43:00,77.0,75.4,29.99,SSE,162,0.0,0.0,95,0.00,,,0.71,0.0,meteohub,2013-10-10 02:43:00,
2013-10-09 22:48:00,77.0,75.4,29.99,SSE,164,0.0,0.0,95,0.00,,,0.71,0.0,meteohub,2013-10-10 02:48:00,
2013-10-09 22:53:00,77.0,75.4,29.99,SSE,164,0.0,1.0,95,0.00,,,0.71,0.0,meteohub,2013-10-10 02:53:00,
2013-10-09 22:58:00,77.0,75.4,29.99,South,178,0.0,1.0,95,0.00,,,0.71,0.0,meteohub,2013-10-10 02:58:00,
2013-10-09 23:03:00,77.2,75.6,29.99,South,178,0.0,5.0,95,0.00,,,0.71,0.0,meteohub,2013-10-10 03:03:00,
2013-10-09 23:08:00,77.2,75.4,29.99,SSE,161,0.0,6.0,94,0.00,,,0.71,0.0,meteohub,2013-10-10 03:08:00,
2013-10-09 23:13:00,77.2,75.4,29.99,SSE,162,0.0,6.0,94,0.00,,,0.71,0.0,meteohub,2013-10-10 03:13:00,
2013-10-09 23:18:00,77.2,75.4,29.99,SSE,162,0.0,6.0,94,0.00,,,0.71,0.0,meteohub,2013-10-10 03:18:00,
2013-10-09 23:23:00,77.2,75.4,29.99,SSW,203,0.0,6.0,94,0.00,,,0.71,0.0,meteohub,2013-10-10 03:23:00,
2013-10-09 23:28:00,77.2,75.4,29.99,SSW,205,0.0,5.0,94,0.00,,,0.71,0.0,meteohub,2013-10-10 03:28:00,
2013-10-09 23:33:00,77.4,75.6,29.99,South,179,0.0,5.0,94,0.00,,,0.71,0.0,meteohub,2013-10-10 03:33:00,
2013-10-09 23:38:00,77.4,75.6,29.99,SSW,200,0.0,5.0,94,0.00,,,0.71,0.0,meteohub,2013-10-10 03:38:00,
2013-10-09 23:43:00,77.2,75.4,29.99,SSW,199,0.0,5.0,94,0.00,,,0.71,0.0,meteohub,2013-10-10 03:43:00,
2013-10-09 23:48:00,77.4,75.6,29.99,SSW,192,0.0,6.0,94,0.00,,,0.71,0.0,meteohub,2013-10-10 03:48:00,
2013-10-09 23:53:00,77.4,75.6,29.99,SSW,195,0.0,6.0,94,0.00,,,0.71,0.0,meteohub,2013-10-10 03:53:00,
2013-10-09 23:58:00,77.2,75.4,29.99,South,189,0.0,3.0,94,0.00,,,0.71,0.0,meteohub,2013-10-10 03:58:00,